Time,TemperatureF,DewpointF,PressureIn,WindDirection,WindDirectionDegrees,WindSpeedMPH,WindSpeedGustMPH,Humidity,HourlyPrecipIn,Conditions,Clouds,dailyrainin,SoftwareType,DateUTC
2014-02-06 00:09:00,62.8,53.3,29.83,NNE,22,2.2,-999.0,71,-99.99,,,0.00,Acu-Link.com,2014-02-06 05:09:00,
2014-02-06 00:24:00,62.2,52.3,29.84,West,270,3.7,-999.0,70,-99.99,,,0.00,Acu-Link.com,2014-02-06 05:24:00,
2014-02-06 00:39:00,61.7,52.2,29.84,WNW,292,3.2,-999.0,71,-99.99,,,0.00,Acu-Link.com,2014-02-06 05:39:00,
2014-02-06 00:54:00,61.3,51.4,29.84,West,270,3.2,-999.0,70,-99.99,,,0.00,Acu-Link.com,2014-02-06 05:54:00,
2014-02-06 01:09:00,60.8,50.6,29.85,NW,315,6.3,-999.0,69,-99.99,,,0.00,Acu-Link.com,2014-02-06 06:09:00,
2014-02-06 01:24:00,60.1,49.9,29.85,West,270,4.2,-999.0,69,-99.99,,,0.00,Acu-Link.com,2014-02-06 06:24:00,
2014-02-06 01:39:00,59.5,50.1,29.85,NW,315,4.7,-999.0,71,-99.99,,,0.00,Acu-Link.com,2014-02-06 06:39:00,
2014-02-06 01:54:00,58.6,50.3,29.85,NNE,22,2.2,-999.0,74,-99.99,,,0.00,Acu-Link.com,2014-02-06 06:54:00,
2014-02-06 02:09:00,57.9,50.0,29.86,West,270,3.2,-999.0,75,-99.99,,,0.00,Acu-Link.com,2014-02-06 07:09:00,
2014-02-06 02:25:00,57.2,49.3,29.86,NW,315,2.2,-999.0,75,-99.99,,,0.00,Acu-Link.com,2014-02-06 07:25:00,
2014-02-06 02:40:00,56.8,49.3,29.86,NE,45,1.7,-999.0,76,-99.99,,,0.00,Acu-Link.com,2014-02-06 07:40:00,
2014-02-06 02:55:00,56.3,49.2,29.86,WSW,247,0.0,-999.0,77,-99.99,,,0.00,Acu-Link.com,2014-02-06 07:55:00,
2014-02-06 03:10:00,55.8,49.4,29.87,ESE,112,2.2,-999.0,79,-99.99,,,0.00,Acu-Link.com,2014-02-06 08:10:00,
2014-02-06 03:25:00,55.0,48.3,29.87,NNE,22,4.2,-999.0,78,-99.99,,,0.00,Acu-Link.com,2014-02-06 08:25:00,
2014-02-06 03:40:00,54.5,48.1,29.87,East,90,3.2,-999.0,79,-99.99,,,0.00,Acu-Link.com,2014-02-06 08:40:00,
2014-02-06 03:55:00,54.1,47.7,29.88,East,90,2.2,-999.0,79,-99.99,,,0.00,Acu-Link.com,2014-02-06 08:55:00,
2014-02-06 04:10:00,53.8,47.4,29.88,East,90,2.2,-999.0,79,-99.99,,,0.00,Acu-Link.com,2014-02-06 09:10:00,
2014-02-06 04:25:00,53.2,46.9,29.88,WNW,292,3.7,-999.0,79,-99.99,,,0.00,Acu-Link.com,2014-02-06 09:25:00,
2014-02-06 04:41:00,52.7,46.0,29.90,West,270,3.7,-999.0,78,-99.99,,,0.00,Acu-Link.com,2014-02-06 09:41:00,
2014-02-06 04:56:00,52.0,44.7,29.90,West,270,2.7,-999.0,76,-99.99,,,0.00,Acu-Link.com,2014-02-06 09:56:00,
2014-02-06 05:11:00,51.6,44.6,29.91,ESE,112,1.7,-999.0,77,-99.99,,,0.00,Acu-Link.com,2014-02-06 10:11:00,
2014-02-06 05:26:00,51.1,44.1,29.91,NNE,22,3.2,-999.0,77,-99.99,,,0.00,Acu-Link.com,2014-02-06 10:26:00,
2014-02-06 05:41:00,50.7,44.4,29.92,East,90,2.7,-999.0,79,-99.99,,,0.00,Acu-Link.com,2014-02-06 10:41:00,
2014-02-06 05:56:00,50.2,43.9,29.92,NE,45,2.7,-999.0,79,-99.99,,,0.00,Acu-Link.com,2014-02-06 10:56:00,
2014-02-06 06:11:00,49.8,43.9,29.93,NNE,22,1.7,-999.0,80,-99.99,,,0.00,Acu-Link.com,2014-02-06 11:11:00,
2014-02-06 06:26:00,49.3,43.4,29.94,NW,315,2.2,-999.0,80,-99.99,,,0.00,Acu-Link.com,2014-02-06 11:26:00,
2014-02-06 06:41:00,49.1,43.8,29.95,West,270,2.7,-999.0,82,-99.99,,,0.00,Acu-Link.com,2014-02-06 11:41:00,
2014-02-06 06:57:00,48.4,42.8,29.95,WNW,292,4.7,-999.0,81,-99.99,,,0.00,Acu-Link.com,2014-02-06 11:57:00,
2014-02-06 07:12:00,48.2,43.0,29.95,East,90,2.2,-999.0,82,-99.99,,,0.00,Acu-Link.com,2014-02-06 12:12:00,
2014-02-06 07:27:00,47.8,42.9,29.96,NE,45,4.7,-999.0,83,-99.99,,,0.00,Acu-Link.com,2014-02-06 12:27:00,
2014-02-06 07:42:00,47.3,41.4,29.96,East,90,5.8,-999.0,80,-99.99,,,0.00,Acu-Link.com,2014-02-06 12:42:00,
2014-02-06 07:57:00,47.1,40.9,29.97,NNE,22,6.3,-999.0,79,-99.99,,,0.00,Acu-Link.com,2014-02-06 12:57:00,
2014-02-06 08:12:00,46.8,40.6,29.98,NE,45,1.7,-999.0,79,-99.99,,,0.00,Acu-Link.com,2014-02-06 13:12:00,
2014-02-06 08:27:00,46.9,40.4,29.98,ENE,67,8.3,-999.0,78,-99.99,,,0.00,Acu-Link.com,2014-02-06 13:27:00,
2014-02-06 08:42:00,47.1,39.6,29.99,ENE,67,2.7,-999.0,75,-99.99,,,0.00,Acu-Link.com,2014-02-06 13:42:00,
2014-02-06 08:57:00,46.8,39.0,29.99,NE,45,4.7,-999.0,74,-99.99,,,0.00,Acu-Link.com,2014-02-06 13:57:00,
2014-02-06 09:12:00,47.7,39.8,29.99,NNE,22,3.7,-999.0,74,-99.99,,,0.00,Acu-Link.com,2014-02-06 14:12:00,
2014-02-06 09:28:00,47.7,39.1,29.99,WNW,292,2.2,-999.0,72,-99.99,,,0.00,Acu-Link.com,2014-02-06 14:28:00,
2014-02-06 09:43:00,47.7,39.1,29.99,East,90,2.7,-999.0,72,-99.99,,,0.00,Acu-Link.com,2014-02-06 14:43:00,
2014-02-06 09:58:00,48.2,38.1,29.99,East,90,4.7,-999.0,68,-99.99,,,0.00,Acu-Link.com,2014-02-06 14:58:00,
2014-02-06 10:13:00,48.4,38.7,30.00,East,90,4.2,-999.0,69,-99.99,,,0.00,Acu-Link.com,2014-02-06 15:13:00,
2014-02-06 10:28:00,48.0,38.0,30.01,NNE,22,4.2,-999.0,68,-99.99,,,0.00,Acu-Link.com,2014-02-06 15:28:00,
2014-02-06 10:43:00,49.6,38.7,30.02,ENE,67,2.2,-999.0,66,-99.99,,,0.00,Acu-Link.com,2014-02-06 15:43:00,
2014-02-06 10:58:00,49.6,39.9,30.01,WNW,292,5.8,-999.0,69,-99.99,,,0.00,Acu-Link.com,2014-02-06 15:58:00,
2014-02-06 11:13:00,51.4,40.8,29.99,East,90,3.7,-999.0,67,-99.99,,,0.00,Acu-Link.com,2014-02-06 16:13:00,
2014-02-06 11:28:00,50.4,39.9,29.99,NE,45,3.2,-999.0,67,-99.99,,,0.00,Acu-Link.com,2014-02-06 16:28:00,
2014-02-06 11:44:00,50.7,39.8,29.98,ESE,112,1.7,-999.0,66,-99.99,,,0.00,Acu-Link.com,2014-02-06 16:44:00,
2014-02-06 11:59:00,52.3,40.9,29.98,NE,45,2.7,-999.0,65,-99.99,,,0.00,Acu-Link.com,2014-02-06 16:59:00,
2014-02-06 12:14:00,55.2,41.6,29.98,NE,45,4.7,-999.0,60,-99.99,,,0.00,Acu-Link.com,2014-02-06 17:14:00,
2014-02-06 12:29:00,54.5,42.6,29.98,NNE,22,3.7,-999.0,64,-99.99,,,0.00,Acu-Link.com,2014-02-06 17:29:00,
2014-02-06 12:44:00,54.0,41.7,29.97,WNW,292,5.8,-999.0,63,-99.99,,,0.00,Acu-Link.com,2014-02-06 17:44:00,
2014-02-06 12:59:00,53.8,41.9,29.95,East,90,2.7,-999.0,64,-99.99,,,0.00,Acu-Link.com,2014-02-06 17:59:00,
2014-02-06 13:14:00,55.2,41.6,29.95,SE,135,7.3,-999.0,60,-99.99,,,0.00,Acu-Link.com,2014-02-06 18:14:00,
2014-02-06 13:29:00,56.3,41.7,29.93,SE,135,4.7,-999.0,58,-99.99,,,0.00,Acu-Link.com,2014-02-06 18:29:00,
2014-02-06 13:44:00,56.7,42.1,29.93,ESE,112,4.2,-999.0,58,-99.99,,,0.00,Acu-Link.com,2014-02-06 18:44:00,
2014-02-06 14:00:00,56.5,42.3,29.93,ESE,112,3.7,-999.0,59,-99.99,,,0.00,Acu-Link.com,2014-02-06 19:00:00,
2014-02-06 14:15:00,57.4,42.7,29.92,East,90,3.7,-999.0,58,-99.99,,,0.00,Acu-Link.com,2014-02-06 19:15:00,
2014-02-06 14:30:00,56.5,43.2,29.92,ENE,67,3.2,-999.0,61,-99.99,,,0.00,Acu-Link.com,2014-02-06 19:30:00,
2014-02-06 14:45:00,57.4,43.2,29.91,East,90,5.3,-999.0,59,-99.99,,,0.00,Acu-Link.com,2014-02-06 19:45:00,
2014-02-06 15:00:00,58.1,43.4,29.91,NE,45,3.7,-999.0,58,-99.99,,,0.00,Acu-Link.com,2014-02-06 20:00:00,
2014-02-06 15:15:00,57.4,43.2,29.90,ENE,67,3.7,-999.0,59,-99.99,,,0.00,Acu-Link.com,2014-02-06 20:15:00,
2014-02-06 15:30:00,56.8,43.9,29.89,ESE,112,3.7,-999.0,62,-99.99,,,0.00,Acu-Link.com,2014-02-06 20:30:00,
2014-02-06 15:45:00,56.5,43.6,29.90,SSE,157,4.2,-999.0,62,-99.99,,,0.00,Acu-Link.com,2014-02-06 20:45:00,
2014-02-06 16:00:00,55.9,43.5,29.90,ENE,67,4.7,-999.0,63,-99.99,,,0.00,Acu-Link.com,2014-02-06 21:00:00,
2014-02-06 16:16:00,55.4,44.6,29.91,ESE,112,2.2,-999.0,67,-99.99,,,0.00,Acu-Link.com,2014-02-06 21:16:00,
2014-02-06 16:31:00,54.9,44.5,29.94,ENE,67,0.0,-999.0,68,-99.99,,,0.00,Acu-Link.com,2014-02-06 21:31:00,
2014-02-06 16:46:00,54.0,43.7,29.94,ENE,67,3.2,-999.0,68,-99.99,,,0.00,Acu-Link.com,2014-02-06 21:46:00,
2014-02-06 17:01:00,52.7,46.4,29.94,East,90,1.7,-999.0,79,-99.99,,,0.00,Acu-Link.com,2014-02-06 22:01:00,
2014-02-06 17:16:00,51.3,46.6,29.95,West,270,2.7,-999.0,84,-99.99,,,0.00,Acu-Link.com,2014-02-06 22:16:00,
2014-02-06 17:31:00,50.5,46.5,29.97,WSW,247,2.7,-999.0,86,-99.99,,,0.00,Acu-Link.com,2014-02-06 22:31:00,
2014-02-06 17:46:00,49.8,46.1,29.97,North,0,4.2,-999.0,87,-99.99,,,0.00,Acu-Link.com,2014-02-06 22:46:00,
2014-02-06 18:01:00,49.1,46.9,29.97,NNE,22,4.2,-999.0,92,-99.99,,,0.01,Acu-Link.com,2014-02-06 23:01:00,
2014-02-06 18:16:00,48.0,46.6,29.98,ENE,67,3.2,-999.0,95,-99.99,,,0.02,Acu-Link.com,2014-02-06 23:16:00,
2014-02-06 18:32:00,47.3,46.5,29.96,ESE,112,6.8,-999.0,97,-99.99,,,0.04,Acu-Link.com,2014-02-06 23:32:00,
2014-02-06 18:47:00,46.9,46.6,29.95,NE,45,3.7,-999.0,99,-99.99,,,0.12,Acu-Link.com,2014-02-06 23:47:00,
2014-02-06 19:02:00,46.9,46.6,29.96,NE,45,2.7,-999.0,99,-99.99,,,0.15,Acu-Link.com,2014-02-07 00:02:00,
2014-02-06 19:17:00,46.9,46.6,29.98,SE,135,4.2,-999.0,99,-99.99,,,0.16,Acu-Link.com,2014-02-07 00:17:00,
2014-02-06 19:32:00,46.9,46.6,29.99,East,90,1.7,-999.0,99,-99.99,,,0.16,Acu-Link.com,2014-02-07 00:32:00,
2014-02-06 19:47:00,46.8,46.5,29.98,ENE,67,4.7,-999.0,99,-99.99,,,0.16,Acu-Link.com,2014-02-07 00:47:00,
2014-02-06 20:02:00,46.6,46.3,29.99,ESE,112,1.7,-999.0,99,-99.99,,,0.23,Acu-Link.com,2014-02-07 01:02:00,
2014-02-06 20:17:00,46.8,46.5,30.01,WNW,292,4.7,-999.0,99,-99.99,,,0.25,Acu-Link.com,2014-02-07 01:17:00,
2014-02-06 20:32:00,46.8,46.5,30.02,West,270,4.2,-999.0,99,-99.99,,,0.29,Acu-Link.com,2014-02-07 01:32:00,
2014-02-06 20:48:00,46.6,46.3,30.01,NE,45,4.2,-999.0,99,-99.99,,,0.31,Acu-Link.com,2014-02-07 01:48:00,
2014-02-06 21:03:00,46.6,46.3,30.03,WSW,247,3.2,-999.0,99,-99.99,,,0.37,Acu-Link.com,2014-02-07 02:03:00,
2014-02-06 21:18:00,46.4,46.1,30.03,West,270,1.1,-999.0,99,-99.99,,,0.38,Acu-Link.com,2014-02-07 02:18:00,
2014-02-06 21:33:00,46.8,46.5,30.05,WNW,292,2.7,-999.0,99,-99.99,,,0.39,Acu-Link.com,2014-02-07 02:33:00,
2014-02-06 21:48:00,46.6,46.3,30.06,WNW,292,4.2,-999.0,99,-99.99,,,0.41,Acu-Link.com,2014-02-07 02:48:00,
2014-02-06 22:03:00,46.4,46.1,30.05,ENE,67,1.7,-999.0,99,-99.99,,,0.44,Acu-Link.com,2014-02-07 03:03:00,
2014-02-06 22:19:00,46.4,46.1,30.05,ENE,67,3.7,-999.0,99,-99.99,,,0.46,Acu-Link.com,2014-02-07 03:19:00,
2014-02-06 22:34:00,46.4,46.1,30.04,East,90,1.7,-999.0,99,-99.99,,,0.46,Acu-Link.com,2014-02-07 03:34:00,
2014-02-06 22:49:00,46.2,45.9,30.04,NNE,22,1.7,-999.0,99,-99.99,,,0.47,Acu-Link.com,2014-02-07 03:49:00,
2014-02-06 23:04:00,46.2,45.9,30.04,NE,45,2.2,-999.0,99,-99.99,,,0.47,Acu-Link.com,2014-02-07 04:04:00,
2014-02-06 23:19:00,46.2,45.9,30.03,East,90,5.3,-999.0,99,-99.99,,,0.47,Acu-Link.com,2014-02-07 04:19:00,
2014-02-06 23:34:00,46.2,45.9,30.03,East,90,3.7,-999.0,99,-99.99,,,0.47,Acu-Link.com,2014-02-07 04:34:00,
2014-02-06 23:49:00,46.0,45.7,30.01,NE,45,3.7,-999.0,99,-99.99,,,0.47,Acu-Link.com,2014-02-07 04:49:00,